Time;durP1;ratioP1;P1;durP2;ratioP2;P2;SDS_P1;SDS_P2;PMS_P1;PMS_P2;Temp;Humidity;BMP_temperature;BMP_pressure;BME280_temperature;BME280_humidity;BME280_pressure;Samples;Min_cycle;Max_cycle;Signal;HPM_P1;HPM_P2
2023/03/27 00:02:25;;;;;;;8.10;1.70;;;;;;;;;;4933142;28;20037;-66
2023/03/27 00:04:53;;;;;;;;;;;;;;;;;;4912909;28;20458;-66
2023/03/27 00:07:19;;;;;;;7.03;1.83;;;;;;;;;;4915715;28;19914;-66
2023/03/27 00:09:46;;;;;;;8.98;2.55;;;;;;;;;;4913865;28;20281;-67
2023/03/27 00:12:14;;;;;;;8.00;2.38;;;;;;;;;;4935411;28;20114;-69
2023/03/27 00:14:41;;;;;;;6.53;1.60;;;;;;;;;;4933503;28;20493;-66
2023/03/27 00:17:09;;;;;;;8.05;1.58;;;;;;;;;;4931882;28;20249;-66
2023/03/27 00:19:38;;;;;;;5.72;1.30;;;;;;;;;;4938106;28;20435;-66
2023/03/27 00:22:04;;;;;;;5.82;1.17;;;;;;;;;;4932571;28;20038;-67
2023/03/27 00:24:33;;;;;;;;;;;;;;;;;;4933110;28;20496;-67
2023/03/27 00:27:00;;;;;;;12.13;6.15;;;;;;;;;;4931853;28;20332;-67
2023/03/27 00:29:30;;;;;;;7.50;1.92;;;;;;;;;;4921801;28;20035;-67
2023/03/27 00:31:59;;;;;;;6.00;1.30;;;;;;;;;;4917322;28;20451;-67
2023/03/27 00:34:27;;;;;;;7.88;1.60;;;;;;;;;;4933960;28;20524;-67
2023/03/27 00:36:55;;;;;;;7.60;1.45;;;;;;;;;;4918094;28;20488;-67
2023/03/27 00:39:24;;;;;;;9.32;1.30;;;;;;;;;;4934012;28;20038;-67
2023/03/27 00:41:54;;;;;;;7.05;1.02;;;;;;;;;;4929046;28;20019;-67
2023/03/27 00:44:33;;;;;;;5.53;1.20;;;;;;;;;;4933078;28;20711;-67
2023/03/27 00:47:11;;;;;;;5.25;1.10;;;;;;;;;;4935982;28;20037;-67
2023/03/27 00:49:40;;;;;;;8.18;1.20;;;;;;;;;;4936454;28;20043;-67
2023/03/27 00:52:08;;;;;;;4.55;1.13;;;;;;;;;;4935886;28;20049;-67
2023/03/27 00:54:41;;;;;;;7.10;1.50;;;;;;;;;;4934922;28;20035;-67
2023/03/27 00:57:15;;;;;;;11.35;2.05;;;;;;;;;;4932645;28;20617;-67
2023/03/27 00:59:44;;;;;;;8.18;1.55;;;;;;;;;;4933382;28;20031;-65
2023/03/27 01:02:14;;;;;;;7.95;1.50;;;;;;;;;;4920925;28;20032;-67
2023/03/27 01:04:43;;;;;;;6.60;1.30;;;;;;;;;;4920893;28;20022;-67
2023/03/27 01:07:10;;;;;;;7.88;1.42;;;;;;;;;;4941297;28;20323;-66
2023/03/27 01:09:39;;;;;;;7.82;1.67;;;;;;;;;;4934602;28;20069;-66
2023/03/27 01:12:23;;;;;;;8.57;1.73;;;;;;;;;;4915742;28;20484;-66
2023/03/27 01:15:10;;;;;;;9.73;1.50;;;;;;;;;;4940704;28;20441;-67
2023/03/27 01:17:59;;;;;;;7.05;1.50;;;;;;;;;;4940436;28;20027;-66
2023/03/27 01:20:45;;;;;;;9.43;1.80;;;;;;;;;;4922602;28;20049;-66
2023/03/27 01:23:31;;;;;;;9.52;1.75;;;;;;;;;;4938813;28;20369;-67
2023/03/27 01:26:16;;;;;;;10.80;1.40;;;;;;;;;;4940828;28;20022;-67
2023/03/27 01:28:50;;;;;;;10.02;1.70;;;;;;;;;;4919680;28;20737;-67
2023/03/27 01:31:35;;;;;;;11.85;1.90;;;;;;;;;;4939437;28;20050;-66
2023/03/27 01:34:20;;;;;;;7.97;1.50;;;;;;;;;;4916663;28;20030;-69
2023/03/27 01:37:06;;;;;;;7.88;1.40;;;;;;;;;;4937388;28;20041;-67
2023/03/27 01:39:45;;;;;;;8.95;1.40;;;;;;;;;;4936720;28;20612;-67
2023/03/27 01:42:31;;;;;;;14.60;1.92;;;;;;;;;;4940955;28;20560;-67
2023/03/27 01:45:13;;;;;;;9.15;1.48;;;;;;;;;;4935921;28;20126;-67
2023/03/27 01:47:48;;;;;;;7.95;1.60;;;;;;;;;;4940213;28;20073;-66
2023/03/27 01:50:28;;;;;;;9.38;1.60;;;;;;;;;;4937787;28;20055;-67
2023/03/27 01:53:11;;;;;;;8.73;1.55;;;;;;;;;;4926150;28;20512;-67
2023/03/27 01:55:42;;;;;;;10.65;1.73;;;;;;;;;;4919556;28;20068;-67
2023/03/27 01:58:16;;;;;;;10.70;1.55;;;;;;;;;;4941834;28;20035;-67
2023/03/27 02:00:55;;;;;;;7.30;1.55;;;;;;;;;;4919663;28;20743;-67
2023/03/27 02:03:25;;;;;;;8.57;1.55;;;;;;;;;;4939569;28;20121;-66
2023/03/27 02:06:04;;;;;;;7.88;1.83;;;;;;;;;;4936079;28;20369;-66
2023/03/27 02:08:52;;;;;;;12.65;1.60;;;;;;;;;;4908060;28;20182;-68
2023/03/27 02:11:21;;;;;;;9.30;1.40;;;;;;;;;;4939289;28;20082;-66
2023/03/27 02:13:56;;;;;;;10.82;1.42;;;;;;;;;;4924488;28;20490;-67
2023/03/27 02:16:27;;;;;;;8.05;1.80;;;;;;;;;;4943656;28;20054;-67
2023/03/27 02:19:00;;;;;;;8.45;1.50;;;;;;;;;;4917385;28;20039;-67
2023/03/27 02:21:31;;;;;;;8.13;1.30;;;;;;;;;;4941280;28;20042;-67
2023/03/27 02:24:00;;;;;;;7.43;1.30;;;;;;;;;;4937057;28;20054;-67
2023/03/27 02:26:34;;;;;;;10.75;1.60;;;;;;;;;;4922914;28;20047;-67
2023/03/27 02:29:20;;;;;;;6.40;1.20;;;;;;;;;;4920124;28;20068;-67
2023/03/27 02:31:56;;;;;;;5.33;1.30;;;;;;;;;;4917897;28;20601;-67
2023/03/27 02:34:30;;;;;;;7.50;1.30;;;;;;;;;;4938485;28;20034;-67
2023/03/27 02:37:02;;;;;;;6.63;1.20;;;;;;;;;;4915545;28;20437;-67
2023/03/27 02:39:47;;;;;;;5.28;1.23;;;;;;;;;;4936523;28;20036;-67
2023/03/27 02:42:34;;;;;;;6.55;1.33;;;;;;;;;;4921113;28;20477;-69
2023/03/27 02:45:20;;;;;;;5.32;1.23;;;;;;;;;;4936536;28;20035;-67
2023/03/27 02:47:51;;;;;;;6.70;1.10;;;;;;;;;;4933281;28;20149;-67
2023/03/27 02:50:22;;;;;;;5.65;1.25;;;;;;;;;;4939371;28;20050;-67
2023/03/27 02:52:53;;;;;;;5.75;1.20;;;;;;;;;;4922323;28;20027;-66
2023/03/27 02:55:35;;;;;;;7.90;1.35;;;;;;;;;;4921477;28;20037;-67
2023/03/27 02:58:15;;;;;;;5.05;1.10;;;;;;;;;;4916781;28;20077;-67
2023/03/27 03:00:47;;;;;;;6.15;1.23;;;;;;;;;;4935832;28;20110;-67
2023/03/27 03:03:33;;;;;;;8.27;1.45;;;;;;;;;;4924010;28;20551;-69
2023/03/27 03:06:06;;;;;;;5.65;1.10;;;;;;;;;;4917353;28;20712;-67
2023/03/27 03:08:41;;;;;;;6.75;1.52;;;;;;;;;;4933475;28;20825;-67
2023/03/27 03:11:12;;;;;;;7.75;1.60;;;;;;;;;;4940048;28;20481;-68
2023/03/27 03:13:38;;;;;;;10.95;1.52;;;;;;;;;;4934615;28;20038;-68
2023/03/27 03:16:04;;;;;;;8.18;1.80;;;;;;;;;;4938208;28;20062;-68
2023/03/27 03:18:32;;;;;;;7.15;1.48;;;;;;;;;;4938958;28;20571;-67
2023/03/27 03:21:00;;;;;;;8.45;1.67;;;;;;;;;;4936829;28;20751;-67
2023/03/27 03:23:28;;;;;;;10.18;1.80;;;;;;;;;;4942571;28;20470;-67
2023/03/27 03:25:57;;;;;;;9.52;1.77;;;;;;;;;;4938740;28;20136;-68
2023/03/27 03:28:27;;;;;;;9.55;1.65;;;;;;;;;;4933788;28;20237;-68
2023/03/27 03:30:57;;;;;;;6.60;1.70;;;;;;;;;;4938513;28;20782;-67
2023/03/27 03:33:26;;;;;;;8.82;1.95;;;;;;;;;;4941237;28;20062;-67
2023/03/27 03:36:02;;;;;;;10.20;2.03;;;;;;;;;;4934684;28;20493;-68
2023/03/27 03:38:29;;;;;;;10.43;1.92;;;;;;;;;;4936398;28;20453;-67
2023/03/27 03:40:58;;;;;;;8.98;1.65;;;;;;;;;;4901703;28;20028;-67
2023/03/27 03:43:25;;;;;;;9.00;1.63;;;;;;;;;;4935259;28;20173;-67
2023/03/27 03:45:51;;;;;;;6.93;1.73;;;;;;;;;;4936509;28;20086;-67
2023/03/27 03:48:18;;;;;;;9.85;1.30;;;;;;;;;;4937156;28;20522;-67
2023/03/27 03:50:47;;;;;;;10.85;1.58;;;;;;;;;;4919254;28;20081;-67
2023/03/27 03:53:16;;;;;;;8.73;1.77;;;;;;;;;;4940575;28;20294;-67
2023/03/27 03:55:44;;;;;;;7.43;1.50;;;;;;;;;;4917937;28;21328;-67
2023/03/27 03:58:12;;;;;;;9.20;1.70;;;;;;;;;;4907950;28;20138;-68
2023/03/27 04:00:42;;;;;;;7.20;1.55;;;;;;;;;;4932965;28;20470;-68
2023/03/27 04:03:09;;;;;;;9.25;1.83;;;;;;;;;;4922178;28;20038;-68
2023/03/27 04:05:37;;;;;;;10.45;2.00;;;;;;;;;;4938420;28;20113;-68
2023/03/27 04:08:08;;;;;;;10.05;2.08;;;;;;;;;;4933825;28;20032;-68
2023/03/27 04:10:38;;;;;;;7.70;1.80;;;;;;;;;;4923111;28;20482;-68
2023/03/27 04:13:06;;;;;;;9.65;1.75;;;;;;;;;;4920669;28;20344;-68
2023/03/27 04:15:38;;;;;;;11.73;1.77;;;;;;;;;;4935473;28;20031;-67
2023/03/27 04:18:06;;;;;;;10.38;1.83;;;;;;;;;;4935541;28;20378;-68
2023/03/27 04:20:36;;;;;;;11.60;2.13;;;;;;;;;;4937023;28;20035;-68
2023/03/27 04:23:03;;;;;;;12.60;2.17;;;;;;;;;;4934873;28;20042;-67
2023/03/27 04:25:31;;;;;;;12.18;2.28;;;;;;;;;;4937744;28;20561;-68
2023/03/27 04:28:01;;;;;;;10.70;2.15;;;;;;;;;;4934287;28;20033;-68
2023/03/27 04:30:28;;;;;;;9.93;1.98;;;;;;;;;;4938907;28;20038;-67
2023/03/27 04:32:58;;;;;;;11.75;2.35;;;;;;;;;;4936530;28;20042;-67
2023/03/27 04:35:26;;;;;;;11.25;2.08;;;;;;;;;;4918376;28;20479;-67
2023/03/27 04:37:55;;;;;;;13.02;2.15;;;;;;;;;;4935317;28;20460;-67
2023/03/27 04:40:24;;;;;;;11.68;2.20;;;;;;;;;;4941492;28;20117;-68
2023/03/27 04:42:54;;;;;;;12.93;2.30;;;;;;;;;;4919822;28;20042;-68
2023/03/27 04:45:24;;;;;;;11.40;2.10;;;;;;;;;;4923600;28;20022;-69
2023/03/27 04:47:53;;;;;;;11.23;2.15;;;;;;;;;;4937654;28;20037;-68
2023/03/27 04:50:21;;;;;;;10.07;2.03;;;;;;;;;;4938353;28;20525;-68
2023/03/27 04:52:50;;;;;;;13.05;2.75;;;;;;;;;;4920445;28;20405;-68
2023/03/27 04:55:21;;;;;;;13.38;3.35;;;;;;;;;;4942103;28;20378;-67
2023/03/27 04:57:49;;;;;;;15.65;4.45;;;;;;;;;;4913334;28;20505;-70
2023/03/27 05:00:18;;;;;;;14.20;2.72;;;;;;;;;;4941731;28;20472;-67
2023/03/27 05:02:47;;;;;;;10.15;2.08;;;;;;;;;;4941052;28;20529;-67
2023/03/27 05:05:18;;;;;;;11.75;2.08;;;;;;;;;;4935216;28;20069;-67
2023/03/27 05:07:49;;;;;;;10.35;1.80;;;;;;;;;;4940201;28;20473;-68
2023/03/27 05:10:16;;;;;;;10.13;2.13;;;;;;;;;;4940707;28;20178;-66
2023/03/27 05:12:50;;;;;;;8.80;1.80;;;;;;;;;;4938292;28;20937;-67
2023/03/27 05:15:19;;;;;;;9.80;1.85;;;;;;;;;;4922448;28;20042;-67
2023/03/27 05:17:51;;;;;;;10.45;1.80;;;;;;;;;;4937118;28;20474;-69
2023/03/27 05:20:20;;;;;;;11.63;2.03;;;;;;;;;;4909902;28;20533;-67
2023/03/27 05:22:48;;;;;;;10.07;2.15;;;;;;;;;;4935739;28;20026;-69
2023/03/27 05:25:17;;;;;;;11.90;2.22;;;;;;;;;;4909055;28;20463;-69
2023/03/27 05:27:44;;;;;;;14.00;2.35;;;;;;;;;;4935813;28;20126;-68
2023/03/27 05:30:13;;;;;;;17.48;2.20;;;;;;;;;;4919807;28;20042;-68
2023/03/27 05:32:43;;;;;;;15.15;2.50;;;;;;;;;;4936577;28;20023;-66
2023/03/27 05:35:10;;;;;;;11.90;2.33;;;;;;;;;;4925177;28;20089;-67
2023/03/27 05:37:37;;;;;;;9.05;2.22;;;;;;;;;;4942679;28;20711;-67
2023/03/27 05:40:06;;;;;;;13.52;2.25;;;;;;;;;;4942955;28;20042;-68
2023/03/27 05:42:33;;;;;;;10.95;2.30;;;;;;;;;;4940974;28;20069;-67
2023/03/27 05:45:01;;;;;;;13.07;2.30;;;;;;;;;;4940122;28;21852;-68
2023/03/27 05:47:28;;;;;;;10.27;2.03;;;;;;;;;;4944345;28;20022;-68
2023/03/27 05:49:56;;;;;;;14.30;2.53;;;;;;;;;;4935806;28;20450;-68
2023/03/27 05:52:24;;;;;;;10.38;2.60;;;;;;;;;;4921823;28;20444;-68
2023/03/27 05:54:51;;;;;;;11.55;2.90;;;;;;;;;;4938001;28;20484;-67
2023/03/27 05:57:19;;;;;;;12.13;3.05;;;;;;;;;;4924453;28;20057;-67
2023/03/27 05:59:47;;;;;;;12.05;2.67;;;;;;;;;;4938499;28;20121;-68
2023/03/27 06:02:18;;;;;;;15.20;3.65;;;;;;;;;;4940982;28;20422;-69
2023/03/27 06:04:44;;;;;;;14.30;3.63;;;;;;;;;;4925128;28;20042;-68
2023/03/27 06:07:13;;;;;;;11.40;3.45;;;;;;;;;;4943701;28;20037;-69
2023/03/27 06:09:44;;;;;;;15.68;4.70;;;;;;;;;;4941012;28;20040;-70
2023/03/27 06:12:12;;;;;;;17.45;4.90;;;;;;;;;;4940038;28;20035;-68
2023/03/27 06:14:40;;;;;;;15.65;4.82;;;;;;;;;;4940575;28;20508;-68
2023/03/27 06:17:07;;;;;;;16.45;4.50;;;;;;;;;;4937148;28;20790;-68
2023/03/27 06:19:35;;;;;;;15.23;3.22;;;;;;;;;;4940104;28;20141;-68
2023/03/27 06:22:03;;;;;;;14.40;3.40;;;;;;;;;;4935013;28;20700;-68
2023/03/27 06:24:32;;;;;;;17.25;3.40;;;;;;;;;;4939926;28;20458;-68
2023/03/27 06:27:02;;;;;;;13.48;3.70;;;;;;;;;;4935023;28;20436;-67
2023/03/27 06:29:30;;;;;;;14.35;3.40;;;;;;;;;;4935298;28;20153;-67
2023/03/27 06:32:00;;;;;;;12.48;3.28;;;;;;;;;;4911255;28;20126;-67
2023/03/27 06:34:29;;;;;;;11.10;3.05;;;;;;;;;;4921317;28;20830;-67
2023/03/27 06:37:01;;;;;;;12.18;3.03;;;;;;;;;;4914010;28;20039;-67
2023/03/27 06:39:29;;;;;;;16.00;3.28;;;;;;;;;;4922152;28;20493;-67
2023/03/27 06:42:00;;;;;;;11.25;2.90;;;;;;;;;;4917971;28;20287;-67
2023/03/27 06:44:28;;;;;;;12.50;3.03;;;;;;;;;;4920947;28;20026;-69
2023/03/27 06:46:56;;;;;;;12.10;2.90;;;;;;;;;;4930150;28;20030;-66
2023/03/27 06:49:24;;;;;;;15.77;2.78;;;;;;;;;;4921082;28;21619;-69
2023/03/27 06:51:51;;;;;;;13.80;2.85;;;;;;;;;;4916889;28;20502;-67
2023/03/27 06:54:19;;;;;;;24.20;3.38;;;;;;;;;;4937619;28;20351;-67
2023/03/27 06:56:48;;;;;;;17.90;3.42;;;;;;;;;;4935058;28;20046;-67
2023/03/27 06:59:15;;;;;;;20.85;3.67;;;;;;;;;;4938933;28;20642;-68
2023/03/27 07:01:44;;;;;;;21.17;3.72;;;;;;;;;;4930893;28;20381;-67
2023/03/27 07:04:16;;;;;;;15.63;2.45;;;;;;;;;;4940565;28;20124;-68
2023/03/27 07:06:47;;;;;;;12.48;2.75;;;;;;;;;;4935883;28;20030;-67
2023/03/27 07:09:15;;;;;;;18.80;3.15;;;;;;;;;;4940571;28;20349;-69
2023/03/27 07:11:43;;;;;;;13.43;2.70;;;;;;;;;;4931647;28;20031;-67
2023/03/27 07:14:10;;;;;;;13.63;2.40;;;;;;;;;;4939920;28;20035;-66
2023/03/27 07:16:37;;;;;;;12.85;2.67;;;;;;;;;;4921390;28;20113;-67
2023/03/27 07:19:04;;;;;;;15.75;2.97;;;;;;;;;;4938049;28;20035;-67
2023/03/27 07:21:33;;;;;;;13.00;2.42;;;;;;;;;;4933528;28;20042;-67
2023/03/27 07:24:00;;;;;;;15.32;2.50;;;;;;;;;;4937201;28;20031;-67
2023/03/27 07:26:29;;;;;;;12.90;2.28;;;;;;;;;;4932851;28;20037;-67
2023/03/27 07:28:59;;;;;;;10.77;2.17;;;;;;;;;;4935957;28;20023;-67
2023/03/27 07:31:28;;;;;;;15.07;2.42;;;;;;;;;;4916214;28;20043;-67
2023/03/27 07:33:56;;;;;;;10.88;2.20;;;;;;;;;;4918609;28;20548;-67
2023/03/27 07:36:25;;;;;;;10.70;1.90;;;;;;;;;;4937082;28;20293;-68
2023/03/27 07:38:52;;;;;;;9.90;2.22;;;;;;;;;;4935139;28;20026;-67
2023/03/27 07:41:21;;;;;;;13.60;2.47;;;;;;;;;;4919510;28;20035;-68
2023/03/27 07:43:49;;;;;;;11.00;1.90;;;;;;;;;;4936037;28;20033;-68
2023/03/27 07:46:17;;;;;;;12.55;2.50;;;;;;;;;;4931698;28;20030;-68
2023/03/27 07:48:44;;;;;;;9.40;2.03;;;;;;;;;;4934088;28;20042;-67
2023/03/27 07:51:12;;;;;;;9.90;2.08;;;;;;;;;;4938388;28;20066;-67
2023/03/27 07:53:40;;;;;;;8.77;1.98;;;;;;;;;;4938217;28;20038;-68
2023/03/27 07:56:08;;;;;;;12.57;2.30;;;;;;;;;;4936385;28;20031;-68
2023/03/27 07:58:35;;;;;;;8.10;1.85;;;;;;;;;;4937039;28;20433;-69
2023/03/27 08:01:03;;;;;;;7.85;1.77;;;;;;;;;;4936009;28;20603;-67
2023/03/27 08:03:32;;;;;;;8.65;1.75;;;;;;;;;;4935923;28;20039;-69
2023/03/27 08:06:19;;;;;;;14.27;2.20;;;;;;;;;;4938621;28;20402;-68
2023/03/27 08:08:47;;;;;;;11.70;2.17;;;;;;;;;;4935121;28;20069;-69
2023/03/27 08:11:14;;;;;;;11.70;2.25;;;;;;;;;;4934737;28;20386;-68
2023/03/27 08:13:50;;;;;;;8.90;1.70;;;;;;;;;;4932755;28;20434;-68
2023/03/27 08:16:18;;;;;;;11.25;2.58;;;;;;;;;;4924037;28;20039;-68
2023/03/27 08:18:45;;;;;;;10.88;2.28;;;;;;;;;;4919469;28;20105;-69
2023/03/27 08:21:14;;;;;;;10.02;2.25;;;;;;;;;;4920745;28;20042;-68
2023/03/27 08:23:42;;;;;;;9.60;2.38;;;;;;;;;;4938651;28;20026;-69
2023/03/27 08:26:09;;;;;;;9.07;2.08;;;;;;;;;;4937289;28;20465;-67
2023/03/27 08:28:37;;;;;;;15.15;2.20;;;;;;;;;;4939181;28;20020;-67
2023/03/27 08:31:10;;;;;;;10.60;2.45;;;;;;;;;;4918174;28;20043;-68
2023/03/27 08:33:47;;;;;;;9.88;2.63;;;;;;;;;;4927136;28;20460;-67
2023/03/27 08:36:13;;;;;;;10.55;2.15;;;;;;;;;;4937294;28;20042;-68
2023/03/27 08:38:42;;;;;;;9.68;2.50;;;;;;;;;;4937489;28;20777;-68
2023/03/27 08:41:27;;;;;;;12.40;2.35;;;;;;;;;;4934849;28;20492;-68
2023/03/27 08:43:56;;;;;;;11.35;2.08;;;;;;;;;;4917929;28;20543;-69
2023/03/27 08:46:28;;;;;;;14.57;2.83;;;;;;;;;;4922314;28;20034;-68
2023/03/27 08:49:17;;;;;;;10.52;2.83;;;;;;;;;;4918527;28;20354;-68
2023/03/27 08:51:59;;;;;;;11.43;2.50;;;;;;;;;;4937751;28;20055;-70
2023/03/27 08:54:30;;;;;;;9.70;1.83;;;;;;;;;;4939929;28;20038;-70
2023/03/27 08:56:56;;;;;;;10.75;2.83;;;;;;;;;;4908156;28;20093;-68
2023/03/27 08:59:26;;;;;;;13.32;2.50;;;;;;;;;;4940323;28;20453;-67
2023/03/27 09:01:56;;;;;;;14.95;3.65;;;;;;;;;;4923548;28;20137;-68
2023/03/27 09:04:31;;;;;;;20.05;4.25;;;;;;;;;;4940471;28;20133;-68
2023/03/27 09:07:12;;;;;;;26.60;5.25;;;;;;;;;;4931493;28;20250;-68
2023/03/27 09:09:54;;;;;;;26.23;4.90;;;;;;;;;;4940534;28;20027;-67
2023/03/27 09:12:42;;;;;;;20.40;3.83;;;;;;;;;;4903365;28;20073;-70
2023/03/27 09:15:20;;;;;;;14.73;3.60;;;;;;;;;;4938594;28;20604;-69
2023/03/27 09:18:19;;;;;;;15.50;3.30;;;;;;;;;;4934418;28;20027;-69
2023/03/27 09:20:58;;;;;;;17.45;3.65;;;;;;;;;;4935904;28;20030;-68
2023/03/27 09:23:41;;;;;;;14.77;3.30;;;;;;;;;;4925509;28;20501;-68
2023/03/27 09:26:10;;;;;;;19.50;4.10;;;;;;;;;;4920807;28;20059;-68
2023/03/27 09:28:44;;;;;;;20.42;4.03;;;;;;;;;;4927491;28;20415;-68
2023/03/27 09:31:23;;;;;;;15.30;2.60;;;;;;;;;;4919186;28;20438;-68
2023/03/27 09:33:51;;;;;;;12.05;2.60;;;;;;;;;;4919659;28;20037;-68
2023/03/27 09:36:26;;;;;;;10.55;2.50;;;;;;;;;;4941890;28;20113;-67
2023/03/27 09:38:57;;;;;;;10.43;2.80;;;;;;;;;;4939476;28;20050;-68
2023/03/27 09:41:33;;;;;;;24.92;3.55;;;;;;;;;;4926079;28;20053;-68
2023/03/27 09:44:15;;;;;;;17.52;3.22;;;;;;;;;;4939113;28;20098;-68
2023/03/27 09:46:47;;;;;;;14.35;4.10;;;;;;;;;;4941038;28;20027;-68
2023/03/27 09:49:20;;;;;;;14.07;3.30;;;;;;;;;;4926391;28;20041;-68
2023/03/27 09:51:59;;;;;;;13.05;3.03;;;;;;;;;;4942514;28;20062;-69
2023/03/27 09:54:31;;;;;;;16.10;2.78;;;;;;;;;;4938194;28;20041;-69
2023/03/27 09:57:10;;;;;;;10.82;2.60;;;;;;;;;;4936992;28;20508;-68
2023/03/27 09:59:55;;;;;;;11.30;2.67;;;;;;;;;;4942757;28;20586;-68
2023/03/27 10:02:28;;;;;;;12.43;3.22;;;;;;;;;;4944455;28;20054;-67
2023/03/27 10:04:59;;;;;;;13.35;3.03;;;;;;;;;;4926011;28;20039;-67
2023/03/27 10:07:29;;;;;;;10.90;2.92;;;;;;;;;;4940736;28;20113;-67
2023/03/27 10:10:18;;;;;;;12.88;2.85;;;;;;;;;;4937222;28;20147;-67
2023/03/27 10:12:57;;;;;;;13.68;3.67;;;;;;;;;;4947486;28;20035;-68
2023/03/27 10:15:38;;;;;;;11.10;3.28;;;;;;;;;;4927845;28;20057;-68
2023/03/27 10:18:26;;;;;;;15.05;3.13;;;;;;;;;;4916483;28;20771;-68
2023/03/27 10:21:01;;;;;;;21.70;3.80;;;;;;;;;;4926422;28;20133;-68
2023/03/27 10:23:42;;;;;;;12.80;3.30;;;;;;;;;;4909855;28;20039;-68
2023/03/27 10:26:16;;;;;;;13.80;3.00;;;;;;;;;;4940736;28;20408;-68
2023/03/27 10:28:47;;;;;;;9.95;2.72;;;;;;;;;;4923252;28;20034;-68
2023/03/27 10:31:31;;;;;;;10.50;2.60;;;;;;;;;;4923583;28;20424;-68
2023/03/27 10:34:03;;;;;;;13.90;2.88;;;;;;;;;;4938405;28;20516;-67
2023/03/27 10:36:36;;;;;;;12.55;2.72;;;;;;;;;;4937276;28;20042;-68
2023/03/27 10:39:16;;;;;;;9.38;2.50;;;;;;;;;;4942914;28;20401;-68
2023/03/27 10:41:56;;;;;;;12.52;2.97;;;;;;;;;;4942816;28;20492;-68
2023/03/27 10:44:27;;;;;;;11.32;2.60;;;;;;;;;;4906982;28;20038;-68
2023/03/27 10:46:56;;;;;;;18.13;2.95;;;;;;;;;;4935589;28;20438;-68
2023/03/27 10:49:43;;;;;;;11.88;2.70;;;;;;;;;;4942955;28;20471;-68
2023/03/27 10:52:31;;;;;;;11.85;2.40;;;;;;;;;;4919052;28;20046;-67
2023/03/27 10:55:16;;;;;;;12.38;2.63;;;;;;;;;;4920752;28;20786;-68
2023/03/27 10:57:46;;;;;;;10.98;2.63;;;;;;;;;;4940380;28;20647;-67
2023/03/27 11:00:31;;;;;;;11.15;2.08;;;;;;;;;;4921776;28;20034;-68
2023/03/27 11:03:03;;;;;;;12.07;2.45;;;;;;;;;;4941166;28;20066;-67
2023/03/27 11:05:36;;;;;;;12.65;2.58;;;;;;;;;;4921790;28;20026;-68
2023/03/27 11:08:11;;;;;;;11.95;2.00;;;;;;;;;;4920109;28;20035;-69
2023/03/27 11:10:45;;;;;;;11.15;2.05;;;;;;;;;;4927812;28;20883;-68
2023/03/27 11:13:22;;;;;;;11.20;2.20;;;;;;;;;;4921426;28;20042;-68
2023/03/27 11:16:10;;;;;;;10.65;2.38;;;;;;;;;;4938353;28;20458;-69
2023/03/27 11:18:44;;;;;;;10.27;2.42;;;;;;;;;;4940290;28;20360;-68
2023/03/27 11:21:18;;;;;;;10.55;3.63;;;;;;;;;;4943307;28;20031;-67
2023/03/27 11:23:58;;;;;;;12.07;2.63;;;;;;;;;;4922845;28;20042;-68
2023/03/27 11:26:36;;;;;;;11.82;2.05;;;;;;;;;;4940599;28;20826;-68
2023/03/27 11:29:11;;;;;;;14.70;3.10;;;;;;;;;;4908119;28;20039;-68
2023/03/27 11:31:37;;;;;;;12.35;2.78;;;;;;;;;;4932286;28;20078;-68
2023/03/27 11:34:05;;;;;;;12.52;2.92;;;;;;;;;;4937927;28;20035;-68
2023/03/27 11:36:34;;;;;;;12.55;2.90;;;;;;;;;;4934805;28;20123;-68
2023/03/27 11:39:14;;;;;;;10.73;3.20;;;;;;;;;;4935257;28;20046;-69
2023/03/27 11:41:44;;;;;;;13.52;2.70;;;;;;;;;;4931577;28;20074;-68
2023/03/27 11:44:14;;;;;;;10.75;2.38;;;;;;;;;;4923444;28;20245;-68
2023/03/27 11:46:43;;;;;;;14.40;3.28;;;;;;;;;;4912468;28;20137;-69
2023/03/27 11:49:31;;;;;;;15.75;4.32;;;;;;;;;;4940592;28;20126;-68
2023/03/27 11:52:01;;;;;;;12.07;2.72;;;;;;;;;;4922046;28;20062;-68
2023/03/27 11:54:44;;;;;;;9.52;2.80;;;;;;;;;;4941480;28;20050;-68
2023/03/27 11:57:21;;;;;;;14.32;2.85;;;;;;;;;;4943826;28;20054;-68
2023/03/27 12:00:10;;;;;;;15.10;3.15;;;;;;;;;;4920897;28;20513;-69
2023/03/27 12:02:48;;;;;;;10.15;2.50;;;;;;;;;;4938280;28;20551;-68
2023/03/27 12:05:23;;;;;;;12.98;2.75;;;;;;;;;;4903104;29;20526;-68
2023/03/27 12:08:11;;;;;;;16.35;3.55;;;;;;;;;;4900264;29;20059;-68
2023/03/27 12:10:41;;;;;;;;;;;;;;;;;;4904254;29;20362;-69
2023/03/27 12:13:28;;;;;;;18.75;4.18;;;;;;;;;;4903504;29;20023;-68
2023/03/27 12:16:10;;;;;;;12.85;3.28;;;;;;;;;;4901272;29;20512;-68
2023/03/27 12:18:56;;;;;;;12.60;3.70;;;;;;;;;;4905265;29;20032;-68
2023/03/27 12:21:32;;;;;;;16.80;5.10;;;;;;;;;;4906146;29;20074;-69
2023/03/27 12:24:33;;;;;;;11.85;3.03;;;;;;;;;;4901418;29;20091;-68
2023/03/27 12:27:19;;;;;;;14.18;3.30;;;;;;;;;;4865470;29;20311;-68
2023/03/27 12:30:05;;;;;;;14.50;3.50;;;;;;;;;;4862176;29;20032;-69
2023/03/27 12:32:48;;;;;;;11.60;2.55;;;;;;;;;;4870767;29;20083;-69
2023/03/27 12:35:19;;;;;;;11.45;2.72;;;;;;;;;;4867507;29;20227;-69
2023/03/27 12:37:49;;;;;;;14.63;3.20;;;;;;;;;;4893246;29;20123;-68
2023/03/27 12:40:44;;;;;;;11.52;3.03;;;;;;;;;;4899722;29;20244;-68
2023/03/27 12:43:32;;;;;;;10.75;3.15;;;;;;;;;;4900079;29;20050;-67
2023/03/27 12:46:13;;;;;;;18.02;3.63;;;;;;;;;;4896964;29;20055;-69
2023/03/27 12:49:12;;;;;;;12.70;2.90;;;;;;;;;;4890305;29;20044;-69
2023/03/27 12:51:56;;;;;;;15.40;3.55;;;;;;;;;;4792839;29;20054;-67
2023/03/27 12:54:30;;;;;;;11.48;2.92;;;;;;;;;;4791861;29;20042;-69
2023/03/27 12:57:03;;;;;;;12.75;3.30;;;;;;;;;;4783708;29;20145;-67
2023/03/27 12:59:32;;;;;;;10.82;2.58;;;;;;;;;;4807107;29;21061;-68
2023/03/27 13:02:20;;;;;;;12.02;2.70;;;;;;;;;;4806423;29;20054;-67
2023/03/27 13:05:04;;;;;;;12.60;3.28;;;;;;;;;;4771351;29;20548;-67
2023/03/27 13:07:50;;;;;;;12.68;3.25;;;;;;;;;;4797532;29;20069;-67
2023/03/27 13:10:25;;;;;;;11.90;3.25;;;;;;;;;;4792460;29;20175;-68
2023/03/27 13:13:03;;;;;;;14.00;3.30;;;;;;;;;;4787810;29;20041;-67
2023/03/27 13:15:47;;;;;;;12.65;3.13;;;;;;;;;;4809842;29;20049;-67
2023/03/27 13:18:13;;;;;;;15.20;3.72;;;;;;;;;;4793269;29;20042;-68
2023/03/27 13:20:59;;;;;;;12.55;3.53;;;;;;;;;;4836459;29;20567;-68
2023/03/27 13:23:50;;;;;;;16.45;3.65;;;;;;;;;;4813128;29;20164;-69
2023/03/27 13:26:30;;;;;;;13.45;3.88;;;;;;;;;;4841733;29;20968;-68
2023/03/27 13:29:00;;;;;;;13.60;3.33;;;;;;;;;;4879181;29;20050;-69
2023/03/27 13:31:45;;;;;;;14.27;4.72;;;;;;;;;;4918506;28;20043;-68
2023/03/27 13:34:33;;;;;;;12.97;3.97;;;;;;;;;;4920443;28;20789;-68
2023/03/27 13:37:14;;;;;;;20.05;8.88;;;;;;;;;;4918438;28;20047;-67
2023/03/27 13:40:10;;;;;;;17.40;4.75;;;;;;;;;;4933166;28;20031;-68
2023/03/27 13:42:50;;;;;;;12.98;3.40;;;;;;;;;;4920370;28;20451;-68
2023/03/27 13:45:36;;;;;;;13.30;3.72;;;;;;;;;;4921537;28;20118;-67
2023/03/27 13:48:24;;;;;;;17.73;3.70;;;;;;;;;;4921079;29;20471;-68
2023/03/27 13:51:18;;;;;;;15.60;3.90;;;;;;;;;;4925818;28;21057;-70
2023/03/27 13:54:02;;;;;;;15.07;4.05;;;;;;;;;;4936765;28;20042;-68
2023/03/27 13:56:45;;;;;;;11.73;3.67;;;;;;;;;;4938523;28;20031;-69
2023/03/27 13:59:30;;;;;;;12.90;3.80;;;;;;;;;;4938147;28;20148;-68
2023/03/27 14:02:03;;;;;;;12.88;3.25;;;;;;;;;;4935892;28;20039;-68
2023/03/27 14:04:59;;;;;;;15.38;3.72;;;;;;;;;;4940860;28;20036;-68
2023/03/27 14:07:46;;;;;;;13.57;3.00;;;;;;;;;;4938297;28;20043;-67
2023/03/27 14:10:37;;;;;;;12.38;3.20;;;;;;;;;;4882689;29;20044;-66
2023/03/27 14:13:22;;;;;;;13.55;4.13;;;;;;;;;;4858253;29;20036;-68
2023/03/27 14:16:08;;;;;;;20.90;3.43;;;;;;;;;;4881516;29;20040;-66
2023/03/27 14:18:58;;;;;;;13.05;3.53;;;;;;;;;;4867681;29;20285;-67
2023/03/27 14:21:26;;;;;;;12.48;3.35;;;;;;;;;;4868293;29;20268;-66
2023/03/27 14:24:07;;;;;;;13.05;3.40;;;;;;;;;;4861464;29;20303;-67
2023/03/27 14:26:36;;;;;;;14.48;3.38;;;;;;;;;;4880784;29;20036;-67
2023/03/27 14:29:04;;;;;;;14.70;3.33;;;;;;;;;;4880926;29;20071;-67
2023/03/27 14:31:35;;;;;;;13.88;3.03;;;;;;;;;;4867118;29;20047;-67
2023/03/27 14:34:14;;;;;;;14.18;3.40;;;;;;;;;;4862002;29;20049;-67
2023/03/27 14:36:44;;;;;;;16.65;3.38;;;;;;;;;;4864086;29;20468;-67
2023/03/27 14:39:21;;;;;;;13.40;3.13;;;;;;;;;;4880988;29;20036;-67
2023/03/27 14:41:56;;;;;;;15.43;3.03;;;;;;;;;;4921039;28;20051;-67
2023/03/27 14:44:24;;;;;;;15.25;3.38;;;;;;;;;;4924863;28;20604;-69
2023/03/27 14:46:53;;;;;;;12.65;3.20;;;;;;;;;;4921394;28;20394;-69
2023/03/27 14:49:27;;;;;;;12.27;3.40;;;;;;;;;;4918454;28;20125;-66
2023/03/27 14:52:03;;;;;;;17.85;2.95;;;;;;;;;;4936049;28;20179;-67
2023/03/27 14:54:32;;;;;;;11.35;2.80;;;;;;;;;;4939093;28;20030;-67
2023/03/27 14:57:01;;;;;;;13.40;2.70;;;;;;;;;;4937232;28;20042;-67
2023/03/27 14:59:33;;;;;;;12.38;2.60;;;;;;;;;;4939589;28;20426;-67
2023/03/27 15:02:03;;;;;;;13.30;3.15;;;;;;;;;;4936452;28;20701;-66
2023/03/27 15:04:33;;;;;;;14.68;3.05;;;;;;;;;;4924636;28;20560;-68
2023/03/27 15:07:32;;;;;;;18.80;4.00;;;;;;;;;;4918018;28;21945;-68
2023/03/27 15:10:11;;;;;;;18.23;3.20;;;;;;;;;;4935185;28;20716;-69
2023/03/27 15:12:45;;;;;;;13.98;3.03;;;;;;;;;;4940953;28;20039;-67
2023/03/27 15:15:26;;;;;;;10.60;2.85;;;;;;;;;;4943598;28;20572;-68